OINN

Details ICAO OINN (NSH)
Name NOSHAHR
Region Iran
Timezone Asia/Tehran (UTC+3.5)
Plans Departing 5
Arriving 11
Stats Elevation -61 ft / -19 m (AMSL)
Location 36.663837° 51.464417°
Runways 1
Magnetic Variation 4.994° E
Sunrise 2017-12-16 03:41:11 UTC / 2017-12-16 07:11:11 Local
Sunset 2017-12-16 13:21:00 UTC / 2017-12-16 16:51:00 Local
Advertisement - Login to hide

Runways

ID Width Length Bearing (true) Bearing (mag) Surface Threshold Offset Overrun Length
10 115 ft / 35 m 6,173 ft / 1,882 m 108.72° 103.73° Asphalt 0 ft / 0 m 492 ft / 150 m
28 115 ft / 35 m 6,173 ft / 1,882 m 288.73° 283.74° Asphalt 492 ft / 150 m 0 ft / 0 m

Map

Weather


0- 5 10 15 20 25 30 35+ Temperature / ° C

Clouds and Precipitation
Forecast for 2017-12-16 06:00 UTC. Updated an hour ago

Ground ~20,000 ft ~40,000 ft Winds

METAR

OINN 160200Z 00000KT 9999 BKN028 09/06 Q1021

TAF

Not found

Frequencies

Tower 121.70 MHz TWR
Tower 124.60 MHz TWR
Warning: Do not use this data for real-world aviation or navigation. No guarantee of current accuracy is given.